createdAt,value
2023-03-03T00:00:26.418Z,0.00
2023-03-03T00:01:26.406Z,0.00
2023-03-03T00:02:26.426Z,0.00
2023-03-03T00:03:26.461Z,0.00
2023-03-03T00:04:26.346Z,0.00
2023-03-03T00:05:26.321Z,0.00
2023-03-03T00:06:26.300Z,0.00
2023-03-03T00:07:26.286Z,0.00
2023-03-03T00:08:26.261Z,0.00
2023-03-03T00:09:26.240Z,0.00
2023-03-03T00:10:26.216Z,0.00
2023-03-03T00:11:26.204Z,0.00
2023-03-03T00:12:26.185Z,0.00
2023-03-03T00:13:26.160Z,0.00
2023-03-03T00:14:26.153Z,0.00
2023-03-03T00:15:26.127Z,0.00
2023-03-03T00:16:26.217Z,0.00
2023-03-03T00:17:26.093Z,0.00
2023-03-03T00:18:26.060Z,0.00
2023-03-03T00:19:26.038Z,0.00
2023-03-03T00:20:26.024Z,0.00
2023-03-03T00:21:25.997Z,0.00
2023-03-03T00:22:25.979Z,0.00
2023-03-03T00:23:25.956Z,0.00
2023-03-03T00:24:25.940Z,0.00
2023-03-03T00:25:25.916Z,0.00
2023-03-03T00:26:25.901Z,0.00
2023-03-03T00:27:25.886Z,0.00
2023-03-03T00:28:25.871Z,0.00
2023-03-03T00:29:25.840Z,0.00
2023-03-03T00:30:25.826Z,0.00
2023-03-03T00:31:25.806Z,0.00
2023-03-03T00:32:25.882Z,0.00
2023-03-03T00:33:25.768Z,0.00
2023-03-03T00:34:25.742Z,0.00
2023-03-03T00:35:25.777Z,0.00
2023-03-03T00:36:25.702Z,0.00
2023-03-03T00:37:25.676Z,0.00
2023-03-03T00:38:25.666Z,0.00
2023-03-03T00:39:25.642Z,0.00
2023-03-03T00:40:25.617Z,0.00
2023-03-03T00:41:25.602Z,0.00
2023-03-03T00:42:25.580Z,0.00
2023-03-03T00:43:25.560Z,0.00
2023-03-03T00:44:25.541Z,0.00
2023-03-03T00:45:25.525Z,0.00
2023-03-03T00:46:25.520Z,0.00
2023-03-03T00:47:25.476Z,0.00
2023-03-03T00:48:25.455Z,0.00
2023-03-03T00:49:25.444Z,0.00
2023-03-03T00:50:25.422Z,0.00
2023-03-03T00:51:25.406Z,0.00
2023-03-03T00:52:25.388Z,0.00
2023-03-03T00:53:25.360Z,0.00
2023-03-03T00:54:25.337Z,0.00
2023-03-03T00:55:25.314Z,0.00
2023-03-03T00:56:25.293Z,0.00
2023-03-03T00:57:25.274Z,0.00
2023-03-03T00:58:25.252Z,0.00
2023-03-03T00:59:25.242Z,0.00
2023-03-03T01:00:25.224Z,0.00
2023-03-03T01:01:25.245Z,0.00
2023-03-03T01:02:25.202Z,0.00
2023-03-03T01:03:25.172Z,0.00
2023-03-03T01:04:25.135Z,0.00
2023-03-03T01:05:25.118Z,0.00
2023-03-03T01:06:25.096Z,0.00
2023-03-03T01:07:25.070Z,0.00
2023-03-03T01:08:25.054Z,0.00
2023-03-03T01:09:25.030Z,0.00
2023-03-03T01:10:25.010Z,0.00
2023-03-03T01:11:24.991Z,0.00
2023-03-03T01:12:24.972Z,0.00
2023-03-03T01:13:24.955Z,0.00
2023-03-03T01:14:24.957Z,0.00
2023-03-03T04:52:41.492Z,0.00
2023-03-03T04:53:21.224Z,8.00
2023-03-03T04:54:21.211Z,8.00
2023-03-03T04:55:21.238Z,0.00
2023-03-03T04:56:21.249Z,0.00
2023-03-03T04:57:21.162Z,0.00
2023-03-03T04:58:21.142Z,0.00
2023-03-03T04:59:21.168Z,0.00
2023-03-03T05:00:21.145Z,0.00
2023-03-03T05:01:21.069Z,0.00
2023-03-03T05:02:21.084Z,0.00
2023-03-03T05:03:21.007Z,0.00
2023-03-03T05:04:21.025Z,0.00
2023-03-03T05:05:20.993Z,0.00
2023-03-03T05:06:20.980Z,0.00
2023-03-03T05:07:20.938Z,0.00
2023-03-03T05:08:20.909Z,0.00
2023-03-03T05:09:20.917Z,0.00
2023-03-03T05:10:20.864Z,0.00
2023-03-03T05:11:20.845Z,0.00
2023-03-03T05:12:20.814Z,0.00
2023-03-03T05:13:20.798Z,0.00
2023-03-03T05:14:20.821Z,0.00
2023-03-03T05:15:20.748Z,0.00
2023-03-03T05:16:20.744Z,0.00
2023-03-03T05:17:20.718Z,0.00
2023-03-03T05:18:20.696Z,0.00
2023-03-03T05:19:20.665Z,0.00
2023-03-03T05:20:20.653Z,0.00
2023-03-03T05:21:20.620Z,0.00
2023-03-03T05:22:20.603Z,0.00
2023-03-03T05:23:20.587Z,0.00
2023-03-03T05:24:20.563Z,0.00
2023-03-03T05:25:20.542Z,0.00
2023-03-03T05:26:20.515Z,0.00
2023-03-03T05:27:20.520Z,0.00
2023-03-03T05:28:20.506Z,0.00
2023-03-03T05:29:20.454Z,0.00
2023-03-03T05:30:20.477Z,0.00
2023-03-03T05:31:20.440Z,0.00
2023-03-03T05:32:20.464Z,0.00
2023-03-03T05:33:20.365Z,0.00
2023-03-03T05:34:20.373Z,0.00
2023-03-03T05:35:20.382Z,0.00
2023-03-03T05:36:20.307Z,0.00
2023-03-03T05:37:20.298Z,0.00
2023-03-03T05:38:20.270Z,0.00
2023-03-03T05:39:20.248Z,0.00
2023-03-03T05:40:20.219Z,4.00
2023-03-03T05:41:20.235Z,0.00
2023-03-03T05:42:20.347Z,4.00
2023-03-03T05:43:20.157Z,4.00
2023-03-03T05:44:20.820Z,4.00
2023-03-03T05:45:20.119Z,4.00
2023-03-03T05:46:20.176Z,4.00
2023-03-03T05:47:20.072Z,4.00
2023-03-03T05:48:20.048Z,8.00
2023-03-03T05:49:20.035Z,8.00
2023-03-03T05:50:20.010Z,8.00
2023-03-03T05:51:20.002Z,12.00
2023-03-03T05:52:19.968Z,12.00
2023-03-03T05:53:19.963Z,16.00
2023-03-03T05:54:19.962Z,20.00
2023-03-03T05:55:19.900Z,20.00
2023-03-03T05:56:19.926Z,24.00
2023-03-03T05:57:19.859Z,24.00
2023-03-03T05:58:19.839Z,28.00
2023-03-03T05:59:19.818Z,32.00
2023-03-03T06:00:19.828Z,36.00
2023-03-03T06:01:19.776Z,40.00
2023-03-03T06:02:19.756Z,44.00
2023-03-03T06:03:19.773Z,52.00
2023-03-03T06:04:19.745Z,56.00
2023-03-03T06:05:19.694Z,60.00
2023-03-03T06:06:19.672Z,68.00
2023-03-03T06:07:19.662Z,72.00
2023-03-03T06:08:19.632Z,76.00
2023-03-03T06:09:19.610Z,84.00
2023-03-03T06:10:19.587Z,88.00
2023-03-03T06:11:19.564Z,100.00
2023-03-03T06:12:19.547Z,108.00
2023-03-03T06:13:19.532Z,112.00
2023-03-03T06:14:19.518Z,120.00
2023-03-03T06:15:19.600Z,132.00
2023-03-03T06:16:19.554Z,140.00
2023-03-03T06:17:19.438Z,148.00
2023-03-03T06:18:19.426Z,160.00
2023-03-03T06:19:19.395Z,168.00
2023-03-03T06:20:19.388Z,180.00
2023-03-03T06:21:19.352Z,188.00
2023-03-03T06:22:19.335Z,200.00
2023-03-03T06:23:19.308Z,216.00
2023-03-03T06:24:19.295Z,224.00
2023-03-03T06:25:19.290Z,240.00
2023-03-03T06:26:19.250Z,252.00
2023-03-03T06:27:19.225Z,268.00
2023-03-03T06:28:19.217Z,280.00
2023-03-03T06:29:19.190Z,292.00
2023-03-03T06:30:19.676Z,308.00
2023-03-03T06:31:19.581Z,320.00
2023-03-03T06:32:19.156Z,336.00
2023-03-03T06:33:19.098Z,352.00
2023-03-03T06:34:19.073Z,364.00
2023-03-03T06:35:19.186Z,380.00
2023-03-03T06:36:19.033Z,400.00
2023-03-03T06:37:19.008Z,420.00
2023-03-03T06:38:19.009Z,436.00
2023-03-03T06:39:18.978Z,452.00
2023-03-03T06:40:18.946Z,468.00
2023-03-03T06:41:18.935Z,488.00
2023-03-03T06:42:18.905Z,504.00
2023-03-03T06:43:18.895Z,520.00
2023-03-03T06:44:18.871Z,540.00
2023-03-03T06:45:18.864Z,560.00
2023-03-03T06:46:18.833Z,576.00
2023-03-03T06:47:18.806Z,596.00
2023-03-03T06:48:18.787Z,612.00
2023-03-03T06:49:18.769Z,632.00
2023-03-03T06:50:18.736Z,648.00
2023-03-03T06:51:18.737Z,664.00
2023-03-03T06:52:18.692Z,684.00
2023-03-03T06:53:18.680Z,700.00
2023-03-03T06:54:18.666Z,724.00
2023-03-03T06:55:18.644Z,744.00
2023-03-03T06:56:18.620Z,764.00
2023-03-03T06:57:18.586Z,788.00
2023-03-03T06:58:18.578Z,812.00
2023-03-03T06:59:18.543Z,828.00
2023-03-03T07:00:18.538Z,848.00
2023-03-03T07:01:18.534Z,872.00
2023-03-03T07:02:18.490Z,900.00
2023-03-03T07:03:18.476Z,936.00
2023-03-03T07:04:18.461Z,964.00
2023-03-03T07:05:18.450Z,996.00
2023-03-03T07:06:18.419Z,1020.00
2023-03-03T07:07:18.389Z,1044.00
2023-03-03T07:08:18.375Z,1088.00
2023-03-03T07:09:18.361Z,1140.00
2023-03-03T07:10:18.329Z,1200.00
2023-03-03T07:11:18.320Z,1260.00
2023-03-03T07:12:18.290Z,1332.00
2023-03-03T07:13:18.276Z,1340.00
2023-03-03T07:14:18.251Z,1228.00
2023-03-03T07:15:18.243Z,1164.00
2023-03-03T07:16:18.235Z,1156.00
2023-03-03T07:17:25.419Z,1144.00
2023-03-03T07:19:22.173Z,1096.00
2023-03-03T07:20:22.124Z,1144.00
2023-03-03T07:22:26.145Z,1016.00
2023-03-03T07:23:26.063Z,948.00
2023-03-03T07:25:30.052Z,920.00
2023-03-03T07:26:29.996Z,1068.00
2023-03-03T07:28:22.902Z,1124.00
2023-03-03T07:29:22.864Z,1220.00
2023-03-03T07:30:22.842Z,1324.00
2023-03-03T07:31:22.840Z,1224.00
2023-03-03T07:32:22.828Z,1176.00
2023-03-03T07:33:22.782Z,1160.00
2023-03-03T07:34:22.766Z,1088.00
2023-03-03T07:35:22.780Z,1068.00
2023-03-03T07:36:22.723Z,1076.00
2023-03-03T07:37:22.704Z,1168.00
2023-03-03T07:38:22.684Z,1260.00
2023-03-03T07:39:22.664Z,1264.00
2023-03-03T07:40:22.646Z,1252.00
2023-03-03T07:41:22.640Z,1300.00
2023-03-03T07:42:22.611Z,1344.00
2023-03-03T07:43:22.589Z,1368.00
2023-03-03T07:44:22.574Z,1320.00
2023-03-03T07:45:22.577Z,1312.00
2023-03-03T07:46:22.560Z,1336.00
2023-03-03T07:47:22.515Z,1328.00
2023-03-03T07:48:22.500Z,1292.00
2023-03-03T07:49:22.476Z,1284.00
2023-03-03T07:50:22.459Z,1240.00
2023-03-03T07:51:22.452Z,1232.00
2023-03-03T07:52:22.427Z,1272.00
2023-03-03T07:53:22.402Z,1308.00
2023-03-03T07:54:22.435Z,1272.00
2023-03-03T07:55:22.362Z,1284.00
2023-03-03T07:56:22.344Z,1312.00
2023-03-03T07:57:22.329Z,1416.00
2023-03-03T07:58:22.303Z,1460.00
2023-03-03T07:59:22.302Z,1620.00
2023-03-03T08:00:22.298Z,1900.00
2023-03-03T08:01:22.253Z,1764.00
2023-03-03T08:02:22.229Z,2024.00
2023-03-03T08:03:22.211Z,2040.00
2023-03-03T08:04:22.322Z,1864.00
2023-03-03T08:05:22.284Z,1728.00
2023-03-03T08:06:22.154Z,1716.00
2023-03-03T08:07:22.153Z,1856.00
2023-03-03T08:08:22.128Z,1920.00
2023-03-03T08:09:22.103Z,1956.00
2023-03-03T08:10:22.093Z,1888.00
2023-03-03T08:11:22.065Z,1804.00
2023-03-03T08:12:22.040Z,1648.00
2023-03-03T08:13:22.044Z,1496.00
2023-03-03T08:14:22.000Z,1556.00
2023-03-03T08:15:21.987Z,1480.00
2023-03-03T08:16:22.017Z,1328.00
2023-03-03T08:17:21.945Z,1240.00
2023-03-03T08:18:21.926Z,1168.00
2023-03-03T08:19:21.907Z,1340.00
2023-03-03T08:20:21.889Z,1380.00
2023-03-03T08:21:21.878Z,1388.00
2023-03-03T08:22:21.849Z,1356.00
2023-03-03T08:23:21.855Z,1264.00
2023-03-03T08:24:21.822Z,1292.00
2023-03-03T08:25:21.794Z,1280.00
2023-03-03T08:26:21.796Z,1388.00
2023-03-03T08:27:21.757Z,1340.00
2023-03-03T08:28:21.738Z,1336.00
2023-03-03T08:29:21.720Z,1300.00
2023-03-03T08:30:21.702Z,1276.00
2023-03-03T08:31:38.230Z,1260.00
2023-03-03T08:32:21.772Z,1332.00
2023-03-03T08:33:21.649Z,1448.00
2023-03-03T08:34:21.631Z,1656.00
2023-03-03T08:35:21.672Z,1724.00
2023-03-03T08:36:21.618Z,1652.00
2023-03-03T08:37:21.590Z,1744.00
2023-03-03T08:38:21.557Z,1976.00
2023-03-03T08:39:21.540Z,2064.00
2023-03-03T08:40:21.540Z,2360.00
2023-03-03T08:41:21.554Z,2388.00
2023-03-03T08:42:21.515Z,2508.00
2023-03-03T08:43:21.497Z,2636.00
2023-03-03T08:44:21.458Z,2500.00
2023-03-03T08:45:21.435Z,2164.00
2023-03-03T08:46:21.461Z,2100.00
2023-03-03T08:47:21.403Z,2168.00
2023-03-03T08:48:21.393Z,2308.00
2023-03-03T08:49:21.366Z,2336.00
2023-03-03T08:50:21.350Z,2600.00
2023-03-03T08:51:21.344Z,3080.00
2023-03-03T08:52:21.320Z,3728.00
2023-03-03T08:53:21.304Z,4840.00
2023-03-03T08:54:21.290Z,5660.00
2023-03-03T08:55:21.262Z,6660.00
2023-03-03T08:56:21.247Z,7260.00
2023-03-03T08:57:21.234Z,6596.00
2023-03-03T08:58:23.820Z,6716.00
2023-03-03T08:59:21.198Z,9024.00
2023-03-03T09:00:21.201Z,8632.00
2023-03-03T09:01:21.208Z,9616.00
2023-03-03T09:02:21.150Z,7328.00
2023-03-03T09:03:21.144Z,9824.00
2023-03-03T09:04:21.143Z,11660.00
2023-03-03T09:05:21.116Z,9348.00
2023-03-03T09:06:21.088Z,7368.00
2023-03-03T09:07:21.099Z,5528.00
2023-03-03T09:08:21.056Z,8016.00
2023-03-03T09:09:21.049Z,8032.00
2023-03-03T09:10:21.026Z,9864.00
2023-03-03T09:11:21.016Z,10264.00
2023-03-03T09:12:21.008Z,7836.00
2023-03-03T09:13:20.984Z,7668.00
2023-03-03T09:14:20.980Z,6804.00
2023-03-03T09:15:20.962Z,5516.00
2023-03-03T09:16:20.986Z,5120.00
2023-03-03T09:17:20.926Z,4904.00
2023-03-03T09:18:20.908Z,4892.00
2023-03-03T09:19:20.892Z,5468.00
2023-03-03T09:20:20.885Z,5112.00
2023-03-03T09:21:20.864Z,3776.00
2023-03-03T09:22:20.862Z,4016.00
2023-03-03T09:23:20.838Z,4032.00
2023-03-03T09:24:20.825Z,4608.00
2023-03-03T09:25:20.811Z,4004.00
2023-03-03T09:26:20.796Z,3544.00
2023-03-03T09:27:20.786Z,3872.00
2023-03-03T09:28:20.766Z,3880.00
2023-03-03T09:29:20.758Z,4148.00
2023-03-03T09:30:20.737Z,4036.00
2023-03-03T09:31:20.748Z,4224.00
2023-03-03T09:32:20.730Z,3940.00
2023-03-03T09:33:20.692Z,4620.00
2023-03-03T09:34:20.685Z,5540.00
2023-03-03T09:35:20.682Z,6244.00
2023-03-03T09:36:20.646Z,6564.00
2023-03-03T09:37:20.644Z,5496.00
2023-03-03T09:38:20.624Z,5088.00
2023-03-03T09:39:20.624Z,16448.00
2023-03-03T09:40:20.599Z,15392.00
2023-03-03T09:41:20.585Z,18400.00
2023-03-03T09:42:20.576Z,16000.00
2023-03-03T09:43:20.554Z,21280.00
2023-03-03T09:44:20.540Z,19712.00
2023-03-03T09:45:20.529Z,21120.00
2023-03-03T09:46:20.531Z,17056.00
2023-03-03T09:47:22.326Z,9824.00
2023-03-03T09:48:20.493Z,22368.00
2023-03-03T09:49:20.471Z,22336.00
2023-03-03T09:50:20.469Z,21056.00
2023-03-03T09:51:20.448Z,22080.00
2023-03-03T09:52:20.437Z,20704.00
2023-03-03T09:53:20.427Z,20384.00
2023-03-03T09:54:20.417Z,13236.00
2023-03-03T09:55:20.406Z,20352.00
2023-03-03T09:56:20.399Z,22208.00
2023-03-03T09:57:20.396Z,24000.00
2023-03-03T09:58:20.375Z,23456.00
2023-03-03T09:59:20.368Z,23616.00
2023-03-03T10:00:20.365Z,22912.00
2023-03-03T10:01:20.340Z,22496.00
2023-03-03T10:02:20.328Z,21280.00
2023-03-03T10:03:20.343Z,19392.00
2023-03-03T10:04:20.343Z,15840.00
2023-03-03T10:05:20.325Z,11092.00
2023-03-03T10:06:20.304Z,7688.00
2023-03-03T10:07:20.285Z,8716.00
2023-03-03T10:08:20.278Z,15776.00
2023-03-03T10:09:20.271Z,23360.00
2023-03-03T10:10:20.261Z,23456.00
2023-03-03T10:11:20.285Z,23936.00
2023-03-03T10:12:20.246Z,22336.00
2023-03-03T10:13:20.234Z,22720.00
2023-03-03T10:14:20.230Z,23168.00
2023-03-03T10:15:20.234Z,22272.00
2023-03-03T10:16:20.269Z,22080.00
2023-03-03T10:17:20.204Z,20832.00
2023-03-03T10:18:20.200Z,23520.00
2023-03-03T10:19:20.189Z,22752.00
2023-03-03T10:20:20.188Z,21408.00
2023-03-03T10:21:20.177Z,23520.00
2023-03-03T10:22:20.168Z,21600.00
2023-03-03T10:23:20.161Z,20768.00
2023-03-03T10:24:20.155Z,19456.00
2023-03-03T10:25:20.174Z,23168.00
2023-03-03T10:26:20.140Z,23040.00
2023-03-03T10:27:20.140Z,22752.00
2023-03-03T10:28:20.134Z,24384.00
2023-03-03T10:29:22.860Z,24000.00
2023-03-03T10:30:33.227Z,24416.00
2023-03-03T10:31:20.759Z,24736.00
2023-03-03T10:32:20.838Z,25216.00
2023-03-03T10:33:20.290Z,24288.00
2023-03-03T10:34:20.095Z,24160.00
2023-03-03T10:35:20.613Z,24032.00
2023-03-03T10:36:20.159Z,24704.00
2023-03-03T10:37:20.089Z,25152.00
2023-03-03T10:38:20.088Z,25568.00
2023-03-03T10:39:20.075Z,24352.00
2023-03-03T10:40:20.096Z,24896.00
2023-03-03T10:41:20.069Z,24352.00
2023-03-03T10:42:20.059Z,23424.00
2023-03-03T10:43:31.042Z,23776.00
2023-03-03T10:44:20.052Z,24544.00
2023-03-03T10:45:20.048Z,24736.00
2023-03-03T10:46:20.142Z,25664.00
2023-03-03T10:47:20.042Z,25504.00
2023-03-03T10:48:20.037Z,26496.00
2023-03-03T10:49:20.037Z,25408.00
2023-03-03T10:50:20.089Z,25600.00
2023-03-03T10:51:20.022Z,25984.00
2023-03-03T10:52:20.043Z,26368.00
2023-03-03T10:53:20.019Z,25760.00
2023-03-03T10:54:20.008Z,25728.00
2023-03-03T10:55:20.015Z,24736.00
2023-03-03T10:56:20.009Z,25440.00
2023-03-03T10:57:20.003Z,25696.00
2023-03-03T10:58:20.056Z,25152.00
2023-03-03T10:59:20.003Z,25152.00
2023-03-03T11:00:20.067Z,25440.00
2023-03-03T11:01:21.018Z,25696.00
2023-03-03T11:02:19.989Z,25600.00
2023-03-03T11:03:19.980Z,25824.00
2023-03-03T11:04:20.031Z,25408.00
2023-03-03T11:05:19.977Z,25504.00
2023-03-03T11:06:19.973Z,26016.00
2023-03-03T11:07:19.976Z,24864.00
2023-03-03T11:08:19.967Z,25600.00
2023-03-03T11:09:19.962Z,24320.00
2023-03-03T11:10:20.020Z,25152.00
2023-03-03T11:11:20.221Z,26208.00
2023-03-03T11:12:22.431Z,25664.00
2023-03-03T11:13:19.956Z,25280.00
2023-03-03T11:14:19.949Z,25600.00
2023-03-03T11:15:19.952Z,25728.00
2023-03-03T11:16:19.962Z,26176.00
2023-03-03T11:17:19.946Z,25792.00
2023-03-03T11:18:22.295Z,25024.00
2023-03-03T11:19:19.940Z,25216.00
2023-03-03T11:20:19.953Z,25184.00
2023-03-03T11:21:19.943Z,25376.00
2023-03-03T11:22:19.940Z,25184.00
2023-03-03T11:23:19.934Z,25056.00
2023-03-03T11:24:19.931Z,24832.00
2023-03-03T11:25:19.936Z,25056.00
2023-03-03T11:26:19.943Z,24832.00
2023-03-03T11:27:19.928Z,25120.00
2023-03-03T11:28:19.935Z,24864.00
2023-03-03T11:29:19.928Z,23936.00
2023-03-03T11:30:19.927Z,24064.00
2023-03-03T11:31:20.036Z,24000.00
2023-03-03T11:32:19.960Z,24000.00
2023-03-03T11:33:19.925Z,23872.00
2023-03-03T11:34:19.924Z,23904.00
2023-03-03T11:35:20.016Z,24480.00
2023-03-03T11:36:19.922Z,24096.00
2023-03-03T11:37:19.916Z,24352.00
2023-03-03T11:38:19.917Z,24288.00
2023-03-03T11:39:19.911Z,23776.00
2023-03-03T11:40:19.911Z,23840.00
2023-03-03T11:41:19.908Z,24224.00
2023-03-03T11:42:21.454Z,23680.00
2023-03-03T11:43:35.396Z,23648.00
2023-03-03T11:44:19.903Z,23264.00
2023-03-03T11:45:19.928Z,22752.00
2023-03-03T11:46:19.949Z,22848.00
2023-03-03T11:47:19.905Z,23136.00
2023-03-03T11:48:19.904Z,23072.00
2023-03-03T11:49:19.903Z,23008.00
2023-03-03T11:50:19.895Z,23456.00
2023-03-03T11:51:19.906Z,23040.00
2023-03-03T11:52:19.899Z,22880.00
2023-03-03T11:53:19.917Z,22400.00
2023-03-03T11:54:19.892Z,22272.00
2023-03-03T11:55:22.547Z,21984.00
2023-03-03T11:56:19.892Z,22144.00
2023-03-03T11:57:19.891Z,22528.00
2023-03-03T11:58:19.889Z,22784.00
2023-03-03T11:59:19.888Z,23200.00
2023-03-03T12:00:19.900Z,24096.00
2023-03-03T12:01:19.901Z,25184.00
2023-03-03T12:02:19.972Z,24704.00
2023-03-03T12:03:19.886Z,24448.00
2023-03-03T12:04:19.886Z,21600.00
2023-03-03T12:05:19.902Z,19072.00
2023-03-03T12:06:19.889Z,16416.00
2023-03-03T12:07:20.123Z,15416.00
2023-03-03T12:08:19.914Z,15032.00
2023-03-03T12:09:19.880Z,14928.00
2023-03-03T12:10:19.887Z,14764.00
2023-03-03T12:11:19.875Z,14772.00
2023-03-03T12:12:19.880Z,14748.00
2023-03-03T12:13:19.876Z,14856.00
2023-03-03T12:14:19.880Z,14904.00
2023-03-03T12:15:19.872Z,15192.00
2023-03-03T12:16:19.919Z,15388.00
2023-03-03T12:17:19.881Z,15236.00
2023-03-03T12:18:19.861Z,15580.00
2023-03-03T12:19:19.861Z,15596.00
2023-03-03T12:20:19.859Z,14836.00
2023-03-03T12:21:19.853Z,13988.00
2023-03-03T12:22:19.870Z,13616.00
2023-03-03T12:23:19.876Z,13228.00
2023-03-03T12:24:19.873Z,12888.00
2023-03-03T12:25:19.879Z,12664.00
2023-03-03T12:26:19.867Z,12448.00
2023-03-03T12:27:19.870Z,12244.00
2023-03-03T12:28:19.861Z,12024.00
2023-03-03T12:29:19.861Z,11840.00
2023-03-03T12:30:19.859Z,11776.00
2023-03-03T12:31:19.865Z,11592.00
2023-03-03T12:32:19.918Z,11384.00
2023-03-03T12:33:19.848Z,11232.00
2023-03-03T12:34:19.858Z,10956.00
2023-03-03T12:35:19.896Z,10728.00
2023-03-03T12:36:19.837Z,10524.00
2023-03-03T12:37:19.865Z,10396.00
2023-03-03T12:38:19.834Z,10232.00
2023-03-03T12:39:33.712Z,10120.00
2023-03-03T12:40:19.829Z,9972.00
2023-03-03T12:41:19.830Z,9780.00
2023-03-03T12:42:19.814Z,9560.00
2023-03-03T12:43:19.817Z,9404.00
2023-03-03T12:44:19.809Z,9184.00
2023-03-03T12:45:19.812Z,9012.00
2023-03-03T12:46:19.870Z,8820.00
2023-03-03T12:47:22.238Z,8616.00
2023-03-03T12:48:19.789Z,8368.00
2023-03-03T12:49:19.786Z,8132.00
2023-03-03T12:50:19.788Z,7920.00
2023-03-03T12:51:19.788Z,7728.00
2023-03-03T12:52:19.779Z,7584.00
2023-03-03T12:53:19.778Z,7408.00
2023-03-03T12:54:19.763Z,7232.00
2023-03-03T12:55:19.781Z,7056.00
2023-03-03T12:56:19.763Z,6876.00
2023-03-03T12:57:19.753Z,6684.00
2023-03-03T12:58:19.750Z,6480.00
2023-03-03T12:59:19.766Z,6288.00
2023-03-03T13:00:19.762Z,6072.00
2023-03-03T13:01:19.749Z,5856.00
2023-03-03T13:02:19.744Z,5668.00
2023-03-03T13:03:19.747Z,5572.00
2023-03-03T13:04:19.795Z,5436.00
2023-03-03T13:05:19.722Z,5316.00
2023-03-03T13:06:19.706Z,5180.00
2023-03-03T13:07:19.787Z,5060.00
2023-03-03T13:08:19.740Z,4976.00
2023-03-03T13:09:19.756Z,4892.00
2023-03-03T13:10:19.690Z,4824.00
2023-03-03T13:11:19.694Z,4692.00
2023-03-03T13:12:19.678Z,4568.00
2023-03-03T13:13:19.678Z,4452.00
2023-03-03T13:14:19.664Z,4360.00
2023-03-03T13:15:21.340Z,4272.00
2023-03-03T13:16:22.143Z,4160.00
2023-03-03T13:17:19.757Z,4012.00
2023-03-03T13:18:19.652Z,3876.00
2023-03-03T13:19:19.641Z,3748.00
2023-03-03T13:20:19.641Z,3628.00
2023-03-03T13:21:19.632Z,3532.00
2023-03-03T13:22:19.633Z,3436.00
2023-03-03T13:23:19.623Z,3316.00
2023-03-03T13:24:19.768Z,3160.00
2023-03-03T13:25:19.669Z,3040.00
2023-03-03T13:26:19.653Z,2976.00
2023-03-03T13:27:19.622Z,2912.00
2023-03-03T13:28:19.600Z,2860.00
2023-03-03T13:29:19.617Z,2820.00
2023-03-03T13:30:19.594Z,2776.00
2023-03-03T13:31:19.617Z,2732.00
2023-03-03T13:32:19.607Z,2688.00
2023-03-03T13:33:19.570Z,2644.00
2023-03-03T13:34:19.559Z,2608.00
2023-03-03T13:35:19.597Z,2572.00
2023-03-03T13:36:19.570Z,2520.00
2023-03-03T13:37:19.539Z,2484.00
2023-03-03T13:38:19.543Z,2452.00
2023-03-03T13:39:19.533Z,2424.00
2023-03-03T13:40:19.522Z,2400.00
2023-03-03T13:41:19.512Z,2376.00
2023-03-03T13:42:19.502Z,2348.00
2023-03-03T13:43:19.495Z,2328.00
2023-03-03T13:44:19.492Z,2304.00
2023-03-03T13:45:19.478Z,2280.00
2023-03-03T13:46:19.475Z,2256.00
2023-03-03T13:47:19.469Z,2232.00
2023-03-03T13:48:19.454Z,2208.00
2023-03-03T13:49:19.444Z,2176.00
2023-03-03T13:50:19.432Z,2144.00
2023-03-03T13:51:19.428Z,2112.00
2023-03-03T13:52:19.439Z,2088.00
2023-03-03T13:53:19.400Z,2064.00
2023-03-03T13:54:19.397Z,2040.00
2023-03-03T13:55:21.532Z,2028.00
2023-03-03T13:56:19.384Z,2016.00
2023-03-03T13:57:19.365Z,2004.00
2023-03-03T13:58:19.354Z,1992.00
2023-03-03T13:59:19.339Z,1968.00
2023-03-03T14:00:19.353Z,1940.00
2023-03-03T14:01:19.356Z,1908.00
2023-03-03T14:02:19.312Z,1872.00
2023-03-03T14:03:19.294Z,1844.00
2023-03-03T14:04:19.494Z,1828.00
2023-03-03T14:05:19.272Z,1812.00
2023-03-03T14:06:19.257Z,1792.00
2023-03-03T14:07:19.347Z,1776.00
2023-03-03T14:08:19.240Z,1752.00
2023-03-03T14:09:19.222Z,1736.00
2023-03-03T14:10:19.222Z,1716.00
2023-03-03T14:11:19.211Z,1696.00
2023-03-03T14:12:19.197Z,1672.00
2023-03-03T14:13:19.391Z,1656.00
2023-03-03T14:14:19.171Z,1648.00
2023-03-03T14:15:19.153Z,1628.00
2023-03-03T14:16:19.200Z,1608.00
2023-03-03T14:17:21.315Z,1592.00
2023-03-03T14:18:19.128Z,1568.00
2023-03-03T14:19:19.104Z,1552.00
2023-03-03T14:20:19.124Z,1536.00
2023-03-03T14:21:19.734Z,1524.00
2023-03-03T14:22:19.381Z,1512.00
2023-03-03T14:23:19.062Z,1500.00
2023-03-03T14:24:19.041Z,1484.00
2023-03-03T14:25:19.041Z,1464.00
2023-03-03T14:26:19.034Z,1460.00
2023-03-03T14:27:19.057Z,1448.00
2023-03-03T14:28:18.996Z,1440.00
2023-03-03T14:29:18.979Z,1428.00
2023-03-03T14:30:18.973Z,1408.00
2023-03-03T14:31:19.106Z,1392.00
2023-03-03T14:32:18.968Z,1372.00
2023-03-03T14:33:18.925Z,1360.00
2023-03-03T14:34:18.926Z,1360.00
2023-03-03T14:35:18.904Z,1348.00
2023-03-03T14:36:18.897Z,1352.00
2023-03-03T14:37:18.887Z,1336.00
2023-03-03T14:38:18.872Z,1320.00
2023-03-03T14:39:18.847Z,1300.00
2023-03-03T14:40:18.840Z,1288.00
2023-03-03T14:41:18.821Z,1280.00
2023-03-03T14:42:18.811Z,1276.00
2023-03-03T14:43:18.808Z,1268.00
2023-03-03T14:44:18.784Z,1260.00
2023-03-03T14:45:29.060Z,1248.00
2023-03-03T14:46:18.785Z,1236.00
2023-03-03T14:47:18.743Z,1224.00
2023-03-03T14:48:18.735Z,1216.00
2023-03-03T14:49:18.732Z,1200.00
2023-03-03T14:50:18.710Z,1188.00
2023-03-03T14:51:18.690Z,1176.00
2023-03-03T14:52:18.694Z,1168.00
2023-03-03T14:53:18.666Z,1160.00
2023-03-03T14:54:18.656Z,1148.00
2023-03-03T14:55:18.636Z,1140.00
2023-03-03T14:56:18.630Z,1124.00
2023-03-03T14:57:18.612Z,1112.00
2023-03-03T14:58:18.609Z,1100.00
2023-03-03T14:59:18.585Z,1092.00
2023-03-03T15:00:18.572Z,1084.00
2023-03-03T15:01:18.612Z,1080.00
2023-03-03T15:02:18.554Z,1068.00
2023-03-03T15:03:18.553Z,1060.00
2023-03-03T15:04:18.522Z,1040.00
2023-03-03T15:05:18.584Z,1032.00
2023-03-03T15:06:18.495Z,1028.00
2023-03-03T15:07:18.485Z,1020.00
2023-03-03T15:08:18.597Z,1012.00
2023-03-03T15:09:18.461Z,1004.00
2023-03-03T15:10:18.439Z,1008.00
2023-03-03T15:11:18.422Z,988.00
2023-03-03T15:12:18.410Z,964.00
2023-03-03T15:13:18.399Z,956.00
2023-03-03T15:14:18.380Z,972.00
2023-03-03T15:15:18.381Z,988.00
2023-03-03T15:16:18.421Z,992.00
2023-03-03T15:17:18.352Z,1000.00
2023-03-03T15:18:18.337Z,1000.00
2023-03-03T15:19:18.311Z,1000.00
2023-03-03T15:20:18.301Z,996.00
2023-03-03T15:21:18.284Z,988.00
2023-03-03T15:22:18.281Z,980.00
2023-03-03T15:23:18.255Z,960.00
2023-03-03T15:24:18.272Z,940.00
2023-03-03T15:25:20.975Z,936.00
2023-03-03T15:26:18.214Z,932.00
2023-03-03T15:27:18.198Z,916.00
2023-03-03T15:28:18.252Z,896.00
2023-03-03T15:29:18.168Z,872.00
2023-03-03T15:30:18.152Z,848.00
2023-03-03T15:31:18.223Z,824.00
2023-03-03T15:32:18.181Z,816.00
2023-03-03T15:33:18.170Z,792.00
2023-03-03T15:34:18.096Z,772.00
2023-03-03T15:35:18.080Z,756.00
2023-03-03T15:36:18.065Z,752.00
2023-03-03T15:37:18.057Z,744.00
2023-03-03T15:38:18.037Z,744.00
2023-03-03T15:39:18.049Z,740.00
2023-03-03T15:40:18.056Z,728.00
2023-03-03T15:41:17.997Z,728.00
2023-03-03T15:42:17.984Z,724.00
2023-03-03T15:43:17.963Z,716.00
2023-03-03T15:44:17.950Z,716.00
2023-03-03T15:45:17.926Z,708.00
2023-03-03T15:46:17.946Z,700.00
2023-03-03T15:47:17.902Z,704.00
2023-03-03T15:48:17.890Z,704.00
2023-03-03T15:49:17.869Z,696.00
2023-03-03T15:50:17.855Z,692.00
2023-03-03T15:51:17.844Z,680.00
2023-03-03T15:52:17.826Z,672.00
2023-03-03T15:53:17.809Z,664.00
2023-03-03T15:54:17.801Z,652.00
2023-03-03T15:55:17.780Z,640.00
2023-03-03T15:56:17.770Z,628.00
2023-03-03T15:57:17.749Z,612.00